sensor_id;sensor_type;location;lat;lon;timestamp;pressure;altitude;pressure_sealevel;temperature;humidity
20628;BME280;10473;42.734;24.258;2023-05-09T17:11:43;92245.72;;;10.30;84.52
20628;BME280;10473;42.734;24.258;2023-05-09T17:14:11;92251.03;;;10.30;84.72
20628;BME280;10473;42.734;24.258;2023-05-09T17:16:39;92247.50;;;10.22;84.97
20628;BME280;10473;42.734;24.258;2023-05-09T17:19:07;92249.94;;;10.12;85.57
20628;BME280;10473;42.734;24.258;2023-05-09T17:21:35;92244.66;;;10.12;85.67
20628;BME280;10473;42.734;24.258;2023-05-09T17:24:03;92239.53;;;10.00;86.53
20628;BME280;10473;42.734;24.258;2023-05-09T17:26:31;92248.28;;;10.04;86.72
20628;BME280;10473;42.734;24.258;2023-05-09T17:29:00;92253.31;;;10.09;86.67
20628;BME280;10473;42.734;24.258;2023-05-09T17:31:29;92258.88;;;10.04;86.23
20628;BME280;10473;42.734;24.258;2023-05-09T17:33:57;92245.38;;;10.09;86.30
20628;BME280;10473;42.734;24.258;2023-05-09T17:36:26;92252.16;;;10.06;85.67
20628;BME280;10473;42.734;24.258;2023-05-09T17:38:54;92249.84;;;10.05;85.92
20628;BME280;10473;42.734;24.258;2023-05-09T17:41:22;92248.72;;;10.06;86.13
20628;BME280;10473;42.734;24.258;2023-05-09T17:43:49;92248.94;;;9.97;86.42
20628;BME280;10473;42.734;24.258;2023-05-09T17:46:23;92241.34;;;9.96;86.40
20628;BME280;10473;42.734;24.258;2023-05-09T17:48:50;92244.28;;;9.91;86.36
20628;BME280;10473;42.734;24.258;2023-05-09T17:51:18;92253.22;;;9.83;86.62
20628;BME280;10473;42.734;24.258;2023-05-09T17:53:47;92257.09;;;9.89;86.37
20628;BME280;10473;42.734;24.258;2023-05-09T17:56:15;92267.25;;;10.06;86.62
20628;BME280;10473;42.734;24.258;2023-05-09T17:58:43;92257.50;;;10.10;86.13
20628;BME280;10473;42.734;24.258;2023-05-09T18:01:11;92267.75;;;10.11;85.20
20628;BME280;10473;42.734;24.258;2023-05-09T18:03:40;92269.56;;;10.07;85.00
20628;BME280;10473;42.734;24.258;2023-05-09T18:06:08;92269.47;;;10.04;84.73
20628;BME280;10473;42.734;24.258;2023-05-09T18:08:36;92259.66;;;10.04;84.09
20628;BME280;10473;42.734;24.258;2023-05-09T18:11:04;92263.63;;;9.95;83.60
20628;BME280;10473;42.734;24.258;2023-05-09T18:13:34;92274.84;;;9.88;84.48
20628;BME280;10473;42.734;24.258;2023-05-09T18:16:01;92276.25;;;9.82;84.46
20628;BME280;10473;42.734;24.258;2023-05-09T18:18:29;92273.97;;;9.81;84.84
20628;BME280;10473;42.734;24.258;2023-05-09T18:20:59;92275.09;;;9.80;84.98
20628;BME280;10473;42.734;24.258;2023-05-09T18:23:26;92281.44;;;9.75;84.69
20628;BME280;10473;42.734;24.258;2023-05-09T18:25:54;92280.25;;;9.73;84.84
20628;BME280;10473;42.734;24.258;2023-05-09T18:28:22;92279.22;;;9.58;85.05
20628;BME280;10473;42.734;24.258;2023-05-09T18:30:51;92285.41;;;9.66;85.19
20628;BME280;10473;42.734;24.258;2023-05-09T18:33:19;92277.59;;;9.73;85.23
20628;BME280;10473;42.734;24.258;2023-05-09T18:35:51;92283.59;;;9.70;84.89
20628;BME280;10473;42.734;24.258;2023-05-09T18:38:20;92284.84;;;9.76;85.20
20628;BME280;10473;42.734;24.258;2023-05-09T18:40:48;92274.81;;;9.66;84.73
20628;BME280;10473;42.734;24.258;2023-05-09T18:43:17;92277.47;;;9.66;84.46
20628;BME280;10473;42.734;24.258;2023-05-09T18:45:47;92275.31;;;9.71;84.82
20628;BME280;10473;42.734;24.258;2023-05-09T18:48:16;92280.78;;;9.82;84.71
20628;BME280;10473;42.734;24.258;2023-05-09T18:50:44;92279.69;;;9.83;85.25
20628;BME280;10473;42.734;24.258;2023-05-09T18:53:12;92280.16;;;9.88;85.57
20628;BME280;10473;42.734;24.258;2023-05-09T18:55:41;92282.56;;;9.97;84.90
20628;BME280;10473;42.734;24.258;2023-05-09T18:58:09;92286.28;;;9.92;84.34
20628;BME280;10473;42.734;24.258;2023-05-09T19:00:37;92286.56;;;9.87;84.46
20628;BME280;10473;42.734;24.258;2023-05-09T19:03:05;92288.44;;;10.06;84.15
20628;BME280;10473;42.734;24.258;2023-05-09T19:05:33;92296.09;;;10.11;83.21
20628;BME280;10473;42.734;24.258;2023-05-09T19:08:00;92292.69;;;10.10;83.61
20628;BME280;10473;42.734;24.258;2023-05-09T19:10:30;92289.25;;;10.10;83.36
20628;BME280;10473;42.734;24.258;2023-05-09T19:13:00;92294.66;;;10.17;82.50
20628;BME280;10473;42.734;24.258;2023-05-09T19:15:28;92288.03;;;10.26;81.95
20628;BME280;10473;42.734;24.258;2023-05-09T19:17:55;92288.81;;;10.27;82.48
20628;BME280;10473;42.734;24.258;2023-05-09T19:20:24;92291.28;;;10.39;82.21
20628;BME280;10473;42.734;24.258;2023-05-09T19:22:52;92293.63;;;10.44;81.98
20628;BME280;10473;42.734;24.258;2023-05-09T19:25:19;92291.09;;;10.51;81.39
20628;BME280;10473;42.734;24.258;2023-05-09T19:27:47;92289.25;;;10.55;81.66
20628;BME280;10473;42.734;24.258;2023-05-09T19:30:16;92289.31;;;10.58;81.60
20628;BME280;10473;42.734;24.258;2023-05-09T19:32:44;92285.19;;;10.61;81.77
20628;BME280;10473;42.734;24.258;2023-05-09T19:35:12;92289.13;;;10.70;81.37
20628;BME280;10473;42.734;24.258;2023-05-09T19:37:40;92286.66;;;10.58;81.08
20628;BME280;10473;42.734;24.258;2023-05-09T19:40:08;92286.88;;;10.72;80.77
20628;BME280;10473;42.734;24.258;2023-05-09T19:42:36;92288.34;;;10.70;80.47
20628;BME280;10473;42.734;24.258;2023-05-09T19:45:05;92276.91;;;10.40;81.51
20628;BME280;10473;42.734;24.258;2023-05-09T19:47:36;92278.66;;;10.55;81.87
20628;BME280;10473;42.734;24.258;2023-05-09T19:50:04;92281.84;;;10.64;81.79
20628;BME280;10473;42.734;24.258;2023-05-09T19:52:32;92274.84;;;10.52;82.08
20628;BME280;10473;42.734;24.258;2023-05-09T19:55:02;92277.75;;;10.70;80.98
20628;BME280;10473;42.734;24.258;2023-05-09T19:57:31;92271.34;;;10.71;81.55
20628;BME280;10473;42.734;24.258;2023-05-09T19:59:58;92282.34;;;10.73;81.04
20628;BME280;10473;42.734;24.258;2023-05-09T20:02:26;92278.28;;;10.79;81.22
20628;BME280;10473;42.734;24.258;2023-05-09T20:04:55;92281.75;;;10.83;80.52
20628;BME280;10473;42.734;24.258;2023-05-09T20:07:23;92280.06;;;10.71;80.21
20628;BME280;10473;42.734;24.258;2023-05-09T20:09:51;92281.31;;;10.81;79.74
20628;BME280;10473;42.734;24.258;2023-05-09T20:12:19;92276.84;;;10.85;79.77
20628;BME280;10473;42.734;24.258;2023-05-09T20:14:47;92284.22;;;10.72;79.97
20628;BME280;10473;42.734;24.258;2023-05-09T20:17:14;92280.53;;;10.77;79.02
20628;BME280;10473;42.734;24.258;2023-05-09T20:19:42;92273.69;;;10.76;79.35
20628;BME280;10473;42.734;24.258;2023-05-09T20:22:11;92281.44;;;10.62;79.88
20628;BME280;10473;42.734;24.258;2023-05-09T20:24:39;92271.00;;;10.50;79.98
20628;BME280;10473;42.734;24.258;2023-05-09T20:27:07;92274.69;;;10.42;80.44
20628;BME280;10473;42.734;24.258;2023-05-09T20:29:35;92275.47;;;10.46;80.50
20628;BME280;10473;42.734;24.258;2023-05-09T20:32:02;92281.66;;;10.53;80.55
20628;BME280;10473;42.734;24.258;2023-05-09T20:34:30;92276.75;;;10.52;80.65
20628;BME280;10473;42.734;24.258;2023-05-09T20:36:58;92268.59;;;10.64;80.02
20628;BME280;10473;42.734;24.258;2023-05-09T20:39:27;92270.91;;;10.43;80.78
20628;BME280;10473;42.734;24.258;2023-05-09T20:41:55;92262.34;;;10.27;81.51
20628;BME280;10473;42.734;24.258;2023-05-09T20:44:27;92261.63;;;10.30;82.17
20628;BME280;10473;42.734;24.258;2023-05-09T20:46:55;92261.81;;;10.18;82.45
20628;BME280;10473;42.734;24.258;2023-05-09T20:49:22;92264.59;;;10.28;82.20
20628;BME280;10473;42.734;24.258;2023-05-09T20:51:50;92262.72;;;10.29;81.79
20628;BME280;10473;42.734;24.258;2023-05-09T20:54:19;92263.38;;;10.22;81.49
20628;BME280;10473;42.734;24.258;2023-05-09T20:56:49;92263.84;;;10.28;81.79
20628;BME280;10473;42.734;24.258;2023-05-09T20:59:17;92269.75;;;10.18;81.81
20628;BME280;10473;42.734;24.258;2023-05-09T21:01:45;92261.31;;;10.12;81.31
20628;BME280;10473;42.734;24.258;2023-05-09T21:04:12;92263.09;;;10.05;82.34
20628;BME280;10473;42.734;24.258;2023-05-09T21:06:42;92263.00;;;10.01;81.95
20628;BME280;10473;42.734;24.258;2023-05-09T21:09:09;92256.03;;;10.12;82.02
20628;BME280;10473;42.734;24.258;2023-05-09T21:11:37;92258.09;;;10.03;82.36
20628;BME280;10473;42.734;24.258;2023-05-09T21:14:07;92255.75;;;9.98;82.20
20628;BME280;10473;42.734;24.258;2023-05-09T21:16:35;92256.16;;;9.78;81.95
20628;BME280;10473;42.734;24.258;2023-05-09T21:19:03;92257.53;;;9.72;83.01
20628;BME280;10473;42.734;24.258;2023-05-09T21:21:31;92258.38;;;9.57;82.90
20628;BME280;10473;42.734;24.258;2023-05-09T21:23:59;92263.69;;;9.38;84.13
20628;BME280;10473;42.734;24.258;2023-05-09T21:26:28;92260.50;;;9.29;84.42
20628;BME280;10473;42.734;24.258;2023-05-09T21:28:56;92251.22;;;9.19;84.71
20628;BME280;10473;42.734;24.258;2023-05-09T21:31:25;92252.69;;;9.17;85.56
20628;BME280;10473;42.734;24.258;2023-05-09T21:33:52;92251.44;;;9.11;85.73
20628;BME280;10473;42.734;24.258;2023-05-09T21:36:20;92242.81;;;9.14;85.67
20628;BME280;10473;42.734;24.258;2023-05-09T21:38:48;92245.47;;;9.14;85.52
20628;BME280;10473;42.734;24.258;2023-05-09T21:41:16;92251.84;;;9.13;85.66
20628;BME280;10473;42.734;24.258;2023-05-09T21:43:44;92254.09;;;9.11;85.64
20628;BME280;10473;42.734;24.258;2023-05-09T21:46:11;92251.72;;;9.06;86.09
20628;BME280;10473;42.734;24.258;2023-05-09T21:48:40;92249.75;;;9.03;86.05
20628;BME280;10473;42.734;24.258;2023-05-09T21:51:08;92251.41;;;8.92;85.66
20628;BME280;10473;42.734;24.258;2023-05-09T21:53:36;92248.50;;;8.97;85.96
20628;BME280;10473;42.734;24.258;2023-05-09T21:56:04;92247.09;;;9.03;86.22
20628;BME280;10473;42.734;24.258;2023-05-09T21:58:33;92249.47;;;9.08;86.16
20628;BME280;10473;42.734;24.258;2023-05-09T22:01:00;92243.63;;;9.18;86.31
20628;BME280;10473;42.734;24.258;2023-05-09T22:03:28;92246.28;;;9.18;85.79
20628;BME280;10473;42.734;24.258;2023-05-09T22:05:57;92240.88;;;9.30;85.38
20628;BME280;10473;42.734;24.258;2023-05-09T22:08:25;92236.78;;;9.32;85.23
20628;BME280;10473;42.734;24.258;2023-05-09T22:10:52;92244.81;;;9.39;85.42
20628;BME280;10473;42.734;24.258;2023-05-09T22:13:20;92240.50;;;9.50;84.98
20628;BME280;10473;42.734;24.258;2023-05-09T22:15:48;92244.75;;;9.55;84.47
20628;BME280;10473;42.734;24.258;2023-05-09T22:18:18;92245.59;;;9.40;85.96
20628;BME280;10473;42.734;24.258;2023-05-09T22:20:46;92245.44;;;9.33;84.56
20628;BME280;10473;42.734;24.258;2023-05-09T22:23:15;92245.53;;;9.36;84.05
20628;BME280;10473;42.734;24.258;2023-05-09T22:25:43;92241.44;;;9.39;83.92
20628;BME280;10473;42.734;24.258;2023-05-09T22:28:10;92235.94;;;9.47;83.69
20628;BME280;10473;42.734;24.258;2023-05-09T22:30:38;92242.69;;;9.45;83.90
20628;BME280;10473;42.734;24.258;2023-05-09T22:33:06;92238.97;;;9.49;83.20
20628;BME280;10473;42.734;24.258;2023-05-09T22:35:33;92242.84;;;9.55;83.27
20628;BME280;10473;42.734;24.258;2023-05-09T22:38:01;92233.13;;;9.40;82.92
20628;BME280;10473;42.734;24.258;2023-05-09T22:40:30;92239.97;;;9.60;82.92
20628;BME280;10473;42.734;24.258;2023-05-09T22:42:58;92234.25;;;9.58;83.59
20628;BME280;10473;42.734;24.258;2023-05-09T22:45:26;92240.47;;;9.69;83.72
20628;BME280;10473;42.734;24.258;2023-05-09T22:47:54;92226.75;;;9.83;83.03
20628;BME280;10473;42.734;24.258;2023-05-09T22:50:22;92228.00;;;9.89;82.37
20628;BME280;10473;42.734;24.258;2023-05-09T22:52:49;92231.69;;;9.84;83.00
20628;BME280;10473;42.734;24.258;2023-05-09T22:55:17;92232.28;;;9.97;82.30
20628;BME280;10473;42.734;24.258;2023-05-09T22:57:46;92234.63;;;10.02;81.96
20628;BME280;10473;42.734;24.258;2023-05-09T23:00:15;92230.75;;;9.96;81.84
20628;BME280;10473;42.734;24.258;2023-05-09T23:02:43;92230.25;;;10.09;81.40
20628;BME280;10473;42.734;24.258;2023-05-09T23:05:12;92233.28;;;10.08;81.21
20628;BME280;10473;42.734;24.258;2023-05-09T23:07:40;92227.41;;;9.99;81.14
20628;BME280;10473;42.734;24.258;2023-05-09T23:10:08;92219.81;;;9.97;80.70
20628;BME280;10473;42.734;24.258;2023-05-09T23:12:36;92224.00;;;9.98;80.60
20628;BME280;10473;42.734;24.258;2023-05-09T23:15:06;92219.94;;;10.04;79.95
20628;BME280;10473;42.734;24.258;2023-05-09T23:17:34;92221.47;;;9.83;80.64
20628;BME280;10473;42.734;24.258;2023-05-09T23:20:03;92208.25;;;9.83;80.93
20628;BME280;10473;42.734;24.258;2023-05-09T23:22:30;92217.69;;;9.84;81.08
20628;BME280;10473;42.734;24.258;2023-05-09T23:24:58;92212.03;;;9.63;81.33
20628;BME280;10473;42.734;24.258;2023-05-09T23:27:26;92208.00;;;9.69;81.56
20628;BME280;10473;42.734;24.258;2023-05-09T23:29:54;92207.44;;;9.60;81.89
20628;BME280;10473;42.734;24.258;2023-05-09T23:32:24;92204.22;;;9.28;81.51
20628;BME280;10473;42.734;24.258;2023-05-09T23:34:51;92199.81;;;9.17;82.35
20628;BME280;10473;42.734;24.258;2023-05-09T23:37:19;92202.91;;;9.19;83.00
20628;BME280;10473;42.734;24.258;2023-05-09T23:39:47;92204.13;;;9.06;83.22
20628;BME280;10473;42.734;24.258;2023-05-09T23:42:14;92191.81;;;8.94;83.85
20628;BME280;10473;42.734;24.258;2023-05-09T23:44:42;92188.00;;;8.92;84.16
20628;BME280;10473;42.734;24.258;2023-05-09T23:47:10;92183.13;;;8.94;84.29
20628;BME280;10473;42.734;24.258;2023-05-09T23:49:39;92187.03;;;9.00;84.25
20628;BME280;10473;42.734;24.258;2023-05-09T23:52:06;92183.34;;;9.04;83.82
20628;BME280;10473;42.734;24.258;2023-05-09T23:54:35;92195.94;;;9.11;84.15
20628;BME280;10473;42.734;24.258;2023-05-09T23:57:02;92187.59;;;9.09;84.08
20628;BME280;10473;42.734;24.258;2023-05-09T23:59:30;92184.81;;;9.02;84.24
